Time;durP1;ratioP1;P1;durP2;ratioP2;P2;SDS_P1;SDS_P2;PMS_P1;PMS_P2;Temp;Humidity;BMP_temperature;BMP_pressure;BME280_temperature;BME280_humidity;BME280_pressure;Samples;Min_cycle;Max_cycle;Signal;HPM_P1;HPM_P2
2023/06/08 00:01:28;;;;;;;19.38;13.27;;;12.10;99.90;;;;;;7388861;19;20023;-88
2023/06/08 00:03:55;;;;;;;18.38;12.18;;;12.20;99.90;;;;;;7388087;19;20014;-88
2023/06/08 00:06:41;;;;;;;23.58;15.60;;;12.20;99.90;;;;;;7391430;19;20105;-89
2023/06/08 00:09:18;;;;;;;24.83;13.32;;;12.20;99.90;;;;;;7391665;19;20026;-88
2023/06/08 00:11:46;;;;;;;21.25;13.15;;;12.10;99.90;;;;;;7390227;19;20062;-88
2023/06/08 00:14:17;;;;;;;17.77;12.15;;;12.20;99.90;;;;;;7388496;19;20023;-88
2023/06/08 00:16:44;;;;;;;17.52;12.40;;;12.20;99.90;;;;;;7389554;19;20494;-89
2023/06/08 00:19:11;;;;;;;22.42;13.00;;;12.20;99.90;;;;;;7388975;19;20199;-89
2023/06/08 00:21:59;;;;;;;18.35;13.15;;;12.20;99.90;;;;;;7387681;19;20085;-89
2023/06/08 00:24:26;;;;;;;17.75;13.10;;;12.20;99.90;;;;;;7389286;19;20532;-88
2023/06/08 00:26:52;;;;;;;25.55;12.90;;;12.30;99.90;;;;;;7386601;19;20019;-89
2023/06/08 00:29:39;;;;;;;19.98;13.40;;;12.30;99.90;;;;;;7386485;19;20033;-89
2023/06/08 00:32:08;;;;;;;20.98;12.55;;;12.20;99.90;;;;;;7385941;19;20019;-89
2023/06/08 00:34:56;;;;;;;21.92;11.75;;;12.30;99.90;;;;;;7387331;19;20018;-89
2023/06/08 00:37:23;;;;;;;21.80;12.45;;;12.30;99.90;;;;;;7386938;19;20025;-90
2023/06/08 00:39:50;;;;;;;19.05;12.90;;;12.30;99.90;;;;;;7387600;19;20022;-89
2023/06/08 00:42:17;;;;;;;22.45;13.70;;;12.30;99.90;;;;;;7384389;19;20102;-90
2023/06/08 00:44:43;;;;;;;17.83;14.80;;;12.30;99.90;;;;;;7386167;19;20487;-89
2023/06/08 00:47:10;;;;;;;21.67;15.45;;;12.30;99.90;;;;;;7386281;19;20043;-89
2023/06/08 00:49:37;;;;;;;17.40;14.52;;;12.30;99.90;;;;;;7387073;19;20019;-89
2023/06/08 00:52:25;;;;;;;18.90;14.50;;;12.20;99.90;;;;;;7387330;19;20011;-89
2023/06/08 00:54:53;;;;;;;21.65;15.55;;;12.10;99.90;;;;;;7387612;19;20075;-88
2023/06/08 00:57:34;;;;;;;19.58;13.80;;;12.20;99.90;;;;;;7386100;19;20022;-89
2023/06/08 01:00:25;;;;;;;19.98;14.32;;;12.20;99.90;;;;;;7389902;19;20015;-90
2023/06/08 01:02:56;;;;;;;21.65;13.15;;;12.10;99.90;;;;;;7386813;19;20018;-89
2023/06/08 01:05:23;;;;;;;21.60;12.55;;;12.10;99.90;;;;;;7388541;19;20430;-89
2023/06/08 01:07:56;;;;;;;19.67;11.95;;;12.10;99.90;;;;;;7388957;19;20015;-89
2023/06/08 01:10:38;;;;;;;19.30;11.82;;;12.10;99.90;;;;;;7391287;19;20119;-89
2023/06/08 01:13:36;;;;;;;22.17;11.88;;;12.10;99.90;;;;;;7388975;19;20018;-89
2023/06/08 01:16:04;;;;;;;18.95;11.65;;;12.10;99.90;;;;;;7388915;19;20061;-88
2023/06/08 01:18:38;;;;;;;19.42;13.93;;;12.00;99.90;;;;;;7387803;19;20018;-89
2023/06/08 01:21:14;;;;;;;24.20;12.98;;;12.00;99.90;;;;;;7389897;19;20022;-88
2023/06/08 01:24:13;;;;;;;24.23;14.85;;;12.00;99.90;;;;;;7390071;19;20023;-89
2023/06/08 01:26:44;;;;;;;23.42;15.27;;;11.90;99.90;;;;;;7389645;19;20022;-89
2023/06/08 01:29:13;;;;;;;24.98;16.38;;;11.90;99.90;;;;;;7388146;19;20049;-89
2023/06/08 01:31:40;;;;;;;24.00;16.10;;;11.90;99.90;;;;;;7389305;19;20027;-89
2023/06/08 01:34:08;;;;;;;21.77;15.80;;;11.90;99.90;;;;;;7389822;19;20022;-88
2023/06/08 01:36:41;;;;;;;24.15;17.00;;;12.00;99.90;;;;;;7391198;19;20823;-88
2023/06/08 01:39:17;;;;;;;25.60;17.17;;;12.00;99.90;;;;;;7395815;19;20022;-89
2023/06/08 01:41:47;;;;;;;24.63;16.83;;;12.00;99.90;;;;;;7393709;19;20022;-89
2023/06/08 01:44:21;;;;;;;27.38;16.77;;;11.90;99.90;;;;;;7391142;19;20036;-89
2023/06/08 01:46:56;;;;;;;22.30;16.17;;;12.00;99.90;;;;;;7394797;19;20050;-89
2023/06/08 01:49:27;;;;;;;25.10;17.67;;;12.00;99.90;;;;;;7392456;19;20062;-88
2023/06/08 01:51:56;;;;;;;24.35;17.52;;;12.00;99.90;;;;;;7392520;19;20074;-89
2023/06/08 01:54:24;;;;;;;23.23;16.77;;;12.00;99.90;;;;;;7392495;19;20010;-88
2023/06/08 01:56:53;;;;;;;23.05;16.30;;;12.00;99.90;;;;;;7389951;19;20022;-88
2023/06/08 01:59:21;;;;;;;24.70;18.00;;;12.10;99.90;;;;;;7387805;19;20105;-89
2023/06/08 02:01:47;;;;;;;24.77;18.20;;;12.00;99.90;;;;;;7389985;19;20053;-89
2023/06/08 02:04:15;;;;;;;27.00;17.65;;;12.00;99.90;;;;;;7385000;19;20352;-89
2023/06/08 02:06:42;;;;;;;26.25;17.42;;;12.10;99.90;;;;;;7389700;19;20014;-90
2023/06/08 02:09:08;;;;;;;25.50;16.38;;;12.10;99.90;;;;;;7385632;19;20025;-88
2023/06/08 02:11:35;;;;;;;28.55;17.85;;;12.00;99.90;;;;;;7388335;19;20022;-89
2023/06/08 02:14:04;;;;;;;24.95;17.02;;;12.10;99.90;;;;;;7383862;19;20102;-89
2023/06/08 02:16:33;;;;;;;25.30;14.98;;;12.10;99.90;;;;;;7386087;19;20019;-89
2023/06/08 02:19:01;;;;;;;22.13;15.73;;;12.10;99.90;;;;;;7384452;19;20630;-89
2023/06/08 02:21:28;;;;;;;25.85;16.38;;;12.00;99.90;;;;;;7385413;19;20014;-89
2023/06/08 02:24:04;;;;;;;18.97;15.33;;;11.90;99.90;;;;;;7382869;19;20352;-89
2023/06/08 02:26:32;;;;;;;26.05;15.85;;;11.90;99.90;;;;;;7384899;19;20019;-90
2023/06/08 02:29:03;;;;;;;21.67;16.23;;;11.90;99.90;;;;;;7382142;19;20520;-90
2023/06/08 02:31:29;;;;;;;23.25;15.68;;;11.90;99.90;;;;;;7384718;19;20470;-89
2023/06/08 02:33:59;;;;;;;26.42;15.98;;;11.90;99.90;;;;;;7384553;19;20019;-88
2023/06/08 02:36:31;;;;;;;21.38;15.07;;;12.00;99.90;;;;;;7385999;19;20015;-89
2023/06/08 02:38:59;;;;;;;26.25;16.13;;;12.00;99.90;;;;;;7383047;19;20043;-89
2023/06/08 02:41:28;;;;;;;22.80;16.80;;;12.00;99.90;;;;;;7384571;19;20193;-90
2023/06/08 02:43:55;;;;;;;25.33;16.10;;;12.00;99.90;;;;;;7380120;19;20026;-89
2023/06/08 02:46:22;;;;;;;28.42;14.90;;;12.10;99.90;;;;;;7384104;19;20015;-90
2023/06/08 02:48:53;;;;;;;25.55;16.17;;;12.00;99.90;;;;;;7386637;19;20022;-90
2023/06/08 02:51:21;;;;;;;22.05;14.98;;;12.00;99.90;;;;;;7382198;19;20701;-90
2023/06/08 02:53:48;;;;;;;23.25;16.63;;;12.00;99.90;;;;;;7382228;19;20486;-89
2023/06/08 02:56:17;;;;;;;25.70;14.40;;;12.00;99.90;;;;;;7381257;19;20359;-89
2023/06/08 02:58:48;;;;;;;26.73;15.45;;;12.00;99.90;;;;;;7380882;19;20423;-90
2023/06/08 03:01:16;;;;;;;20.20;14.93;;;12.00;99.90;;;;;;7383586;19;20014;-90
2023/06/08 03:03:52;;;;;;;22.05;14.38;;;12.00;99.90;;;;;;7388278;19;20036;-90
2023/06/08 03:06:26;;;;;;;18.10;14.15;;;11.90;99.90;;;;;;7390123;19;20134;-90
2023/06/08 03:08:57;;;;;;;23.05;14.80;;;11.90;99.90;;;;;;7392648;19;20110;-89
2023/06/08 03:11:26;;;;;;;18.35;14.68;;;11.80;99.90;;;;;;7392758;19;20022;-89
2023/06/08 03:13:52;;;;;;;22.58;14.40;;;11.80;99.90;;;;;;7394388;19;20032;-90
2023/06/08 03:16:20;;;;;;;22.83;14.55;;;11.80;99.90;;;;;;7392460;19;20082;-89
2023/06/08 03:18:48;;;;;;;20.45;14.50;;;11.80;99.90;;;;;;7392428;19;20023;-90
2023/06/08 03:21:18;;;;;;;23.98;15.70;;;11.80;99.90;;;;;;7396667;19;20047;-88
2023/06/08 03:23:48;;;;;;;18.98;15.13;;;11.80;99.90;;;;;;7394387;19;20014;-88
2023/06/08 03:26:17;;;;;;;22.65;17.08;;;11.80;99.90;;;;;;7398219;19;20023;-89
2023/06/08 03:28:45;;;;;;;25.13;16.67;;;11.60;99.90;;;;;;7395961;19;20011;-89
2023/06/08 03:31:14;;;;;;;26.73;16.27;;;11.60;99.90;;;;;;7396925;19;20043;-90
2023/06/08 03:33:47;;;;;;;23.35;17.45;;;11.60;99.90;;;;;;7396306;19;20021;-90
2023/06/08 03:36:15;;;;;;;22.00;16.88;;;11.60;99.90;;;;;;7396676;19;20021;-90
2023/06/08 03:38:44;;;;;;;24.88;17.58;;;11.60;99.90;;;;;;7395637;19;20074;-88
2023/06/08 03:41:15;;;;;;;26.13;17.27;;;11.60;99.90;;;;;;7393820;19;20019;-89
2023/06/08 03:43:44;;;;;;;24.05;16.98;;;11.60;99.90;;;;;;7393329;19;20018;-90
2023/06/08 03:46:21;;;;;;;25.05;17.50;;;11.70;99.90;;;;;;7393479;19;20025;-90
2023/06/08 03:48:55;;;;;;;27.73;18.65;;;11.70;99.90;;;;;;7392816;19;20298;-91
2023/06/08 03:51:22;;;;;;;23.40;17.23;;;11.60;99.90;;;;;;7390583;19;20475;-90
2023/06/08 03:53:52;;;;;;;23.98;16.83;;;11.70;99.90;;;;;;7389661;19;20378;-90
2023/06/08 03:56:21;;;;;;;21.58;16.42;;;11.70;99.90;;;;;;7389977;19;20042;-90
2023/06/08 03:58:51;;;;;;;22.98;16.80;;;11.70;99.90;;;;;;7393268;19;20047;-89
2023/06/08 04:01:22;;;;;;;25.98;17.17;;;11.70;99.90;;;;;;7390287;19;20018;-90
2023/06/08 04:03:52;;;;;;;25.92;17.05;;;11.70;99.90;;;;;;7390623;19;20026;-90
2023/06/08 04:06:19;;;;;;;27.90;17.77;;;11.80;99.90;;;;;;7387771;19;21131;-90
2023/06/08 04:08:52;;;;;;;26.88;17.67;;;11.80;99.90;;;;;;7390994;19;20057;-90
2023/06/08 04:11:18;;;;;;;28.88;18.35;;;11.80;99.90;;;;;;7389945;19;20555;-90
2023/06/08 04:13:46;;;;;;;26.83;17.80;;;11.90;99.90;;;;;;7388981;19;20469;-90
2023/06/08 04:16:15;;;;;;;22.67;17.13;;;11.80;99.90;;;;;;7387424;19;20023;-90
2023/06/08 04:18:48;;;;;;;22.77;16.80;;;11.90;99.90;;;;;;7384986;19;20481;-90
2023/06/08 04:21:25;;;;;;;26.40;18.23;;;11.80;99.90;;;;;;7387785;19;20382;-90
2023/06/08 04:23:54;;;;;;;24.63;16.52;;;11.90;99.90;;;;;;7388235;19;20399;-90
2023/06/08 04:26:26;;;;;;;28.33;18.00;;;11.90;99.90;;;;;;7387306;19;20019;-90
2023/06/08 04:28:53;;;;;;;24.33;17.42;;;11.90;99.90;;;;;;7386208;19;20014;-89
2023/06/08 04:31:23;;;;;;;28.60;17.48;;;11.90;99.90;;;;;;7384995;19;20040;-88
2023/06/08 04:34:12;;;;;;;23.23;17.15;;;12.10;99.90;;;;;;7385062;19;20042;-88
2023/06/08 04:37:00;;;;;;;20.17;14.77;;;12.00;99.90;;;;;;7388054;19;20036;-89
2023/06/08 04:39:49;;;;;;;24.23;17.40;;;12.00;99.90;;;;;;7382987;19;20014;-89
2023/06/08 04:42:40;;;;;;;24.52;16.00;;;12.10;99.90;;;;;;7378709;19;20018;-90
2023/06/08 04:45:28;;;;;;;21.90;15.75;;;12.10;99.90;;;;;;7381772;19;20355;-89
2023/06/08 04:48:15;;;;;;;24.30;15.93;;;12.10;99.90;;;;;;7381328;19;20015;-89
2023/06/08 04:51:04;;;;;;;25.85;16.10;;;12.10;99.90;;;;;;7382733;19;20014;-89
2023/06/08 04:53:54;;;;;;;26.33;15.80;;;12.20;99.90;;;;;;7384437;19;20019;-89
2023/06/08 04:56:43;;;;;;;20.05;15.23;;;12.40;99.90;;;;;;7382944;19;20022;-91
2023/06/08 04:59:10;;;;;;;21.67;15.70;;;12.40;99.90;;;;;;7382446;19;20035;-89
2023/06/08 05:01:37;;;;;;;22.35;14.77;;;12.40;99.90;;;;;;7381702;19;20052;-88
2023/06/08 05:04:07;;;;;;;24.67;14.75;;;12.40;99.90;;;;;;7383581;19;20397;-90
2023/06/08 05:06:35;;;;;;;24.75;14.70;;;12.40;99.90;;;;;;7382179;19;20478;-89
2023/06/08 05:09:05;;;;;;;23.95;14.05;;;12.50;99.90;;;;;;7382709;19;20018;-89
2023/06/08 05:11:32;;;;;;;21.38;13.65;;;12.60;99.90;;;;;;7386029;19;20018;-89
2023/06/08 05:14:10;;;;;;;23.90;14.13;;;12.70;99.90;;;;;;7382090;19;20035;-89
2023/06/08 05:16:37;;;;;;;25.77;14.85;;;12.80;99.90;;;;;;7383076;19;20014;-90
2023/06/08 05:19:11;;;;;;;17.50;13.10;;;12.90;99.90;;;;;;7383328;19;20015;-89
2023/06/08 05:21:39;;;;;;;17.75;13.60;;;13.00;99.90;;;;;;7384704;19;20015;-89
2023/06/08 05:24:11;;;;;;;22.33;13.40;;;13.10;99.90;;;;;;7380806;19;20027;-87
2023/06/08 05:26:39;;;;;;;20.63;12.98;;;13.20;99.90;;;;;;7381911;19;20018;-88
2023/06/08 05:29:08;;;;;;;15.00;11.98;;;13.20;99.90;;;;;;7375937;19;20019;-89
2023/06/08 05:31:39;;;;;;;19.27;11.90;;;13.40;99.90;;;;;;7371847;19;20363;-90
2023/06/08 05:34:05;;;;;;;20.48;12.80;;;13.50;99.90;;;;;;7372282;19;20635;-74
2023/06/08 05:36:31;;;;;;;16.63;11.10;;;13.50;99.90;;;;;;7360209;19;20022;-74
2023/06/08 05:39:03;;;;;;;19.08;11.85;;;13.50;99.90;;;;;;7365531;19;20602;-75
2023/06/08 05:41:30;;;;;;;18.15;11.75;;;13.60;99.90;;;;;;7365362;19;20030;-75
2023/06/08 05:43:58;;;;;;;102.78;80.03;;;13.70;99.90;;;;;;7366549;19;20014;-76
2023/06/08 05:46:24;;;;;;;32.63;25.83;;;13.70;99.90;;;;;;7365953;19;20023;-76
2023/06/08 05:48:51;;;;;;;43.30;30.67;;;13.70;99.90;;;;;;7370823;19;20023;-76
2023/06/08 05:51:17;;;;;;;35.13;25.15;;;13.80;99.90;;;;;;7366934;19;20018;-76
2023/06/08 05:53:43;;;;;;;21.20;12.85;;;14.20;99.90;;;;;;7369742;19;20035;-76
2023/06/08 05:56:10;;;;;;;30.65;20.10;;;14.50;99.90;;;;;;7365488;19;20014;-76
2023/06/08 05:58:36;;;;;;;28.10;18.40;;;14.70;99.90;;;;;;7372524;19;20070;-75
2023/06/08 06:01:04;;;;;;;18.17;13.27;;;15.00;99.90;;;;;;7367262;19;20794;-75
2023/06/08 06:03:34;;;;;;;21.17;12.35;;;15.40;99.90;;;;;;7371344;19;20022;-74
2023/06/08 06:06:00;;;;;;;24.40;18.92;;;15.60;99.90;;;;;;7365464;19;20589;-75
2023/06/08 06:08:27;;;;;;;18.70;11.93;;;15.70;99.90;;;;;;7368907;19;20094;-75
2023/06/08 06:10:53;;;;;;;18.90;13.20;;;15.80;99.90;;;;;;7362749;19;20599;-75
2023/06/08 06:13:21;;;;;;;49.80;37.42;;;16.00;99.90;;;;;;7368220;19;20026;-75
2023/06/08 06:15:47;;;;;;;26.15;19.02;;;16.10;99.90;;;;;;7362176;19;20849;-75
2023/06/08 06:18:14;;;;;;;22.70;15.93;;;16.30;99.90;;;;;;7364745;19;20030;-75
2023/06/08 06:20:40;;;;;;;17.20;12.85;;;16.20;99.90;;;;;;7363505;19;20030;-75
2023/06/08 06:23:06;;;;;;;24.92;19.98;;;16.30;99.90;;;;;;7361991;19;20493;-75
2023/06/08 06:25:37;;;;;;;27.58;19.20;;;16.60;99.90;;;;;;7366693;19;20082;-75
2023/06/08 06:28:03;;;;;;;23.45;16.08;;;16.80;99.90;;;;;;7364666;19;20018;-76
2023/06/08 06:30:31;;;;;;;17.08;11.50;;;16.90;99.90;;;;;;7368644;19;20139;-76
2023/06/08 06:32:57;;;;;;;18.65;12.88;;;16.90;99.90;;;;;;7368227;19;20015;-76
2023/06/08 06:35:23;;;;;;;22.13;17.05;;;17.10;99.90;;;;;;7366055;19;20039;-76
2023/06/08 06:37:53;;;;;;;14.13;8.73;;;17.20;99.90;;;;;;7369908;19;20594;-76
2023/06/08 06:40:19;;;;;;;81.68;72.65;;;17.20;99.90;;;;;;7370403;19;20110;-76
2023/06/08 06:42:46;;;;;;;30.05;25.10;;;17.30;99.90;;;;;;7367592;19;20198;-76
2023/06/08 06:45:32;;;;;;;17.90;8.60;;;17.70;99.90;;;;;;7368611;19;20015;-75
2023/06/08 06:47:58;;;;;;;19.38;12.52;;;17.90;99.90;;;;;;7366646;19;20403;-76
2023/06/08 06:50:26;;;;;;;15.48;9.10;;;18.00;99.90;;;;;;7367137;19;20019;-76
2023/06/08 06:52:52;;;;;;;16.75;9.23;;;18.00;99.90;;;;;;7368613;19;20011;-76
2023/06/08 06:55:18;;;;;;;18.73;7.78;;;18.20;99.90;;;;;;7366236;19;20068;-76
2023/06/08 06:57:48;;;;;;;14.50;7.65;;;18.30;99.90;;;;;;7367568;19;20029;-76
2023/06/08 07:00:15;;;;;;;17.27;7.40;;;18.60;99.90;;;;;;7367139;19;20081;-76
2023/06/08 07:02:42;;;;;;;14.75;10.30;;;18.70;99.90;;;;;;7365507;19;20029;-76
2023/06/08 07:05:10;;;;;;;12.43;6.43;;;18.90;99.90;;;;;;7367686;19;20022;-76
2023/06/08 07:07:36;;;;;;;16.88;7.65;;;19.00;99.90;;;;;;7368737;19;20014;-76
2023/06/08 07:10:03;;;;;;;16.20;6.57;;;19.10;99.90;;;;;;7366379;19;20581;-75
2023/06/08 07:12:30;;;;;;;14.10;6.38;;;19.00;99.90;;;;;;7366735;19;20090;-76
2023/06/08 07:14:56;;;;;;;12.10;6.90;;;19.40;99.90;;;;;;7368833;19;20022;-76
2023/06/08 07:17:23;;;;;;;13.57;7.07;;;19.30;99.90;;;;;;7362884;19;20023;-76
2023/06/08 07:19:51;;;;;;;15.55;6.40;;;19.60;99.90;;;;;;7365922;19;20015;-75
2023/06/08 07:22:17;;;;;;;15.77;10.18;;;19.60;99.90;;;;;;7367159;19;20022;-75
2023/06/08 07:24:44;;;;;;;36.17;26.45;;;19.70;99.90;;;;;;7366306;19;20526;-75
2023/06/08 07:27:11;;;;;;;14.02;8.88;;;19.70;99.90;;;;;;7364346;19;20615;-76
2023/06/08 07:29:37;;;;;;;28.05;21.15;;;19.80;99.90;;;;;;7368556;19;20022;-77
2023/06/08 07:32:04;;;;;;;22.73;16.42;;;19.90;99.90;;;;;;7365837;19;20034;-76
2023/06/08 07:34:31;;;;;;;14.48;10.48;;;20.20;99.90;;;;;;7369211;19;20495;-76
2023/06/08 07:36:58;;;;;;;12.48;6.78;;;20.60;99.90;;;;;;7365219;19;20465;-76
2023/06/08 07:39:24;;;;;;;22.77;10.98;;;20.70;99.90;;;;;;7367060;19;20064;-76
2023/06/08 07:41:53;;;;;;;11.50;6.60;;;20.80;99.90;;;;;;7373090;19;20037;-76
2023/06/08 07:44:21;;;;;;;14.93;9.80;;;20.60;99.90;;;;;;7368672;19;20014;-77
2023/06/08 07:46:48;;;;;;;12.65;6.20;;;21.10;99.90;;;;;;7368381;19;20019;-76
2023/06/08 07:49:14;;;;;;;12.02;5.05;;;21.30;99.90;;;;;;7379120;19;20035;-77
2023/06/08 07:51:42;;;;;;;13.57;5.70;;;21.20;99.90;;;;;;7378265;19;20018;-77
2023/06/08 07:54:08;;;;;;;10.95;5.85;;;21.00;99.90;;;;;;7373290;19;20019;-77
2023/06/08 07:56:35;;;;;;;9.75;4.97;;;20.90;99.90;;;;;;7374720;19;20018;-77
2023/06/08 07:59:01;;;;;;;12.02;6.00;;;20.90;99.90;;;;;;7375114;19;20074;-78
2023/06/08 08:01:27;;;;;;;9.40;5.80;;;21.10;99.90;;;;;;7373497;19;20059;-76
2023/06/08 08:03:54;;;;;;;32.03;28.67;;;21.30;99.90;;;;;;7376845;19;20018;-76
2023/06/08 08:06:23;;;;;;;14.38;7.03;;;20.90;99.90;;;;;;7372955;19;21068;-76
2023/06/08 08:08:50;;;;;;;14.60;9.85;;;20.70;99.90;;;;;;7373810;19;20018;-76
2023/06/08 08:11:17;;;;;;;13.60;7.97;;;20.50;99.90;;;;;;7374069;19;20019;-76
2023/06/08 08:13:43;;;;;;;15.77;8.73;;;20.20;99.90;;;;;;7374974;19;20094;-76
2023/06/08 08:16:10;;;;;;;12.80;6.25;;;20.00;99.90;;;;;;7370220;19;20074;-76
2023/06/08 08:18:36;;;;;;;13.02;7.70;;;20.10;99.90;;;;;;7370975;19;20018;-75
2023/06/08 08:21:03;;;;;;;14.02;11.00;;;20.30;99.90;;;;;;7373311;19;20056;-77
2023/06/08 08:23:29;;;;;;;13.43;6.65;;;20.60;99.90;;;;;;7374778;19;20044;-77
2023/06/08 08:25:55;;;;;;;12.73;7.50;;;20.90;99.90;;;;;;7370815;19;20018;-76
2023/06/08 08:28:22;;;;;;;13.25;6.47;;;20.90;99.90;;;;;;7371903;19;20026;-77
2023/06/08 08:30:49;;;;;;;15.93;6.75;;;21.00;99.90;;;;;;7371393;19;20010;-77
2023/06/08 08:33:17;;;;;;;15.18;7.30;;;20.80;99.90;;;;;;7366429;19;20018;-77
2023/06/08 08:35:43;;;;;;;36.35;32.17;;;20.60;99.90;;;;;;7366462;19;20083;-76
2023/06/08 08:38:09;;;;;;;16.33;11.82;;;20.70;99.90;;;;;;7366706;19;20057;-77
2023/06/08 08:40:36;;;;;;;13.57;9.15;;;20.70;99.90;;;;;;7372509;19;20391;-78
2023/06/08 08:43:11;;;;;;;12.02;7.85;;;20.60;99.90;;;;;;7368702;19;20427;-77
2023/06/08 08:45:41;;;;;;;13.45;7.25;;;21.20;99.90;;;;;;7370838;19;20022;-76
2023/06/08 08:48:12;;;;;;;13.68;6.85;;;21.90;99.20;;;;;;7369167;19;20007;-77
2023/06/08 08:50:40;;;;;;;12.38;6.97;;;22.30;98.20;;;;;;7372072;19;20061;-78
2023/06/08 08:53:09;;;;;;;11.85;6.15;;;22.70;96.70;;;;;;7369338;19;20094;-78
2023/06/08 08:55:36;;;;;;;10.88;5.70;;;22.80;93.40;;;;;;7370077;19;20015;-78
2023/06/08 08:58:05;;;;;;;12.73;6.05;;;23.30;92.90;;;;;;7372559;19;20014;-78
2023/06/08 09:00:33;;;;;;;14.30;6.63;;;23.40;92.30;;;;;;7370985;19;20018;-77
2023/06/08 09:03:01;;;;;;;10.02;5.78;;;24.00;90.20;;;;;;7370187;19;20019;-77
2023/06/08 09:05:27;;;;;;;13.27;8.63;;;24.10;80.90;;;;;;7371428;19;20018;-76
2023/06/08 09:07:55;;;;;;;16.73;13.55;;;24.20;79.20;;;;;;7371489;19;21244;-76
2023/06/08 09:10:24;;;;;;;14.82;9.70;;;24.00;74.60;;;;;;7370567;19;21216;-75
2023/06/08 09:12:53;;;;;;;18.02;8.20;;;24.00;73.50;;;;;;7371387;19;20022;-75
2023/06/08 09:15:34;;;;;;;13.20;5.63;;;24.10;74.50;;;;;;7368469;19;20022;-76
2023/06/08 09:18:15;;;;;;;13.70;7.05;;;24.30;71.40;;;;;;7366002;19;20064;-76
2023/06/08 09:20:42;;;;;;;11.18;5.70;;;24.40;73.70;;;;;;7370897;19;20370;-77
2023/06/08 09:23:24;;;;;;;12.52;5.53;;;24.80;73.30;;;;;;7371877;19;20022;-76
2023/06/08 09:25:53;;;;;;;13.10;5.68;;;24.80;69.60;;;;;;7369082;19;20019;-77
2023/06/08 09:28:28;;;;;;;11.75;5.90;;;25.10;70.80;;;;;;7370999;19;20053;-77
2023/06/08 09:31:00;;;;;;;10.23;6.05;;;25.20;68.60;;;;;;7368915;19;20379;-77
2023/06/08 09:33:29;;;;;;;21.48;16.77;;;25.60;66.60;;;;;;7372057;19;20023;-77
2023/06/08 09:35:58;;;;;;;10.57;5.47;;;25.80;66.60;;;;;;7368886;19;20903;-78
2023/06/08 09:38:29;;;;;;;10.85;6.80;;;25.90;63.50;;;;;;7371682;19;20108;-76
2023/06/08 09:41:16;;;;;;;19.73;13.95;;;25.50;62.00;;;;;;7369426;19;20542;-76
2023/06/08 09:43:45;;;;;;;11.30;4.80;;;25.80;63.50;;;;;;7372000;19;20021;-77
2023/06/08 09:46:15;;;;;;;11.65;5.10;;;25.50;61.20;;;;;;7362609;19;20034;-77
2023/06/08 09:48:53;;;;;;;11.27;5.32;;;25.90;62.10;;;;;;7367144;19;20018;-77
2023/06/08 09:51:22;;;;;;;11.52;5.30;;;26.00;62.60;;;;;;7368939;19;20529;-76
2023/06/08 09:53:59;;;;;;;11.33;4.90;;;25.90;59.70;;;;;;7370687;19;20022;-77
2023/06/08 09:56:28;;;;;;;8.85;4.65;;;26.30;60.00;;;;;;7368884;19;20283;-77
2023/06/08 09:58:57;;;;;;;28.48;25.15;;;26.20;59.80;;;;;;7369025;19;20111;-77
2023/06/08 10:01:40;;;;;;;29.65;26.05;;;26.50;60.60;;;;;;7366038;19;20113;-76
2023/06/08 10:04:31;;;;;;;16.80;11.05;;;26.90;62.00;;;;;;7363075;19;20381;-77
2023/06/08 10:07:13;;;;;;;35.33;31.20;;;26.90;57.20;;;;;;7361660;19;20022;-77
2023/06/08 10:09:43;;;;;;;12.90;5.00;;;27.10;58.30;;;;;;7367494;19;20628;-76
2023/06/08 10:12:11;;;;;;;12.10;8.98;;;27.00;57.40;;;;;;7364114;19;20022;-77
2023/06/08 10:14:37;;;;;;;13.13;5.47;;;27.20;58.30;;;;;;7360174;19;20015;-76
2023/06/08 10:17:04;;;;;;;13.30;9.82;;;27.00;58.10;;;;;;7363925;19;20496;-76
2023/06/08 10:19:36;;;;;;;9.32;4.68;;;27.30;58.40;;;;;;7361107;19;20022;-76
2023/06/08 10:22:02;;;;;;;9.43;6.32;;;27.60;54.60;;;;;;7367443;19;20018;-77
2023/06/08 10:24:30;;;;;;;17.23;10.93;;;27.20;53.30;;;;;;7364726;19;20043;-77
2023/06/08 10:27:25;;;;;;;17.20;12.43;;;27.10;53.70;;;;;;7368842;19;20023;-77
2023/06/08 10:29:59;;;;;;;12.10;7.03;;;27.30;54.40;;;;;;7365803;19;20038;-77
2023/06/08 10:32:34;;;;;;;8.95;5.28;;;27.70;55.30;;;;;;7369827;19;20046;-77
2023/06/08 10:35:06;;;;;;;14.18;7.47;;;27.50;54.00;;;;;;7370341;19;20026;-77
2023/06/08 10:37:36;;;;;;;13.63;7.78;;;27.30;54.00;;;;;;7368801;19;20043;-76
2023/06/08 10:40:12;;;;;;;13.13;5.55;;;27.60;53.00;;;;;;7368535;19;20023;-77
2023/06/08 10:42:53;;;;;;;12.35;6.45;;;27.90;53.40;;;;;;7368511;19;20652;-77
2023/06/08 10:45:30;;;;;;;;;;;28.20;51.50;;;;;;7366556;19;20092;-76
2023/06/08 10:48:19;;;;;;;12.63;5.45;;;28.30;53.30;;;;;;7367929;19;19922;-77
2023/06/08 10:50:49;;;;;;;12.68;9.15;;;28.50;52.90;;;;;;7366633;19;20030;-77
2023/06/08 10:53:22;;;;;;;9.82;4.93;;;28.60;53.30;;;;;;7364365;19;20044;-76
2023/06/08 10:55:50;;;;;;;12.55;7.45;;;28.70;51.90;;;;;;7366487;19;20030;-76
2023/06/08 10:58:19;;;;;;;15.30;5.82;;;28.70;53.70;;;;;;7364387;19;20988;-76
2023/06/08 11:01:03;;;;;;;13.15;5.93;;;28.70;52.60;;;;;;7366568;19;20026;-77
2023/06/08 11:03:45;;;;;;;11.40;4.80;;;28.40;51.60;;;;;;7368777;19;20122;-76
2023/06/08 11:06:16;;;;;;;11.77;7.35;;;29.00;52.10;;;;;;7364436;19;20112;-76
2023/06/08 11:08:42;;;;;;;11.00;4.72;;;29.00;50.90;;;;;;7366929;19;20517;-76
2023/06/08 11:11:11;;;;;;;12.20;5.85;;;28.70;51.40;;;;;;7366104;19;20024;-77
2023/06/08 11:13:37;;;;;;;11.23;7.32;;;29.00;52.40;;;;;;7366887;19;20010;-76
2023/06/08 11:16:04;;;;;;;11.68;6.00;;;29.10;51.80;;;;;;7365345;19;20458;-76
2023/06/08 11:18:30;;;;;;;15.23;8.48;;;29.00;51.80;;;;;;7363959;19;20022;-75
2023/06/08 11:21:00;;;;;;;13.52;5.50;;;29.10;51.60;;;;;;7365152;19;20023;-76
2023/06/08 11:23:31;;;;;;;12.88;4.93;;;29.20;50.80;;;;;;7370455;19;20022;-76
2023/06/08 11:25:57;;;;;;;14.38;6.80;;;29.10;50.90;;;;;;7372092;19;20620;-76
2023/06/08 11:28:23;;;;;;;9.90;5.70;;;29.60;50.80;;;;;;7371743;19;20490;-76
2023/06/08 11:30:49;;;;;;;11.13;7.10;;;29.80;50.40;;;;;;7372387;19;20409;-76
2023/06/08 11:33:20;;;;;;;11.25;5.55;;;29.90;49.40;;;;;;7375647;19;20026;-75
2023/06/08 11:35:53;;;;;;;13.05;8.30;;;30.10;49.00;;;;;;7374629;19;20018;-76
2023/06/08 11:38:23;;;;;;;10.88;5.55;;;29.80;48.70;;;;;;7377621;19;20074;-76
2023/06/08 11:40:50;;;;;;;13.23;7.13;;;29.50;48.20;;;;;;7378791;19;20107;-76
2023/06/08 11:43:17;;;;;;;11.23;6.10;;;29.70;48.20;;;;;;7376418;19;20082;-77
2023/06/08 11:45:44;;;;;;;10.65;4.60;;;29.40;48.60;;;;;;7376609;19;20015;-77
2023/06/08 11:48:10;;;;;;;12.00;6.07;;;29.90;48.00;;;;;;7374801;19;20445;-76
2023/06/08 11:50:45;;;;;;;9.05;4.15;;;29.80;47.50;;;;;;7372638;19;20134;-76
2023/06/08 11:53:15;;;;;;;8.73;4.80;;;29.90;46.30;;;;;;7374885;19;20390;-76
2023/06/08 11:55:45;;;;;;;9.38;5.75;;;30.00;47.00;;;;;;7374658;19;20018;-76
2023/06/08 11:58:14;;;;;;;11.65;6.65;;;29.80;47.20;;;;;;7372908;19;20022;-76
2023/06/08 12:00:40;;;;;;;17.17;5.75;;;30.00;47.60;;;;;;7370764;19;20014;-76
2023/06/08 12:03:09;;;;;;;11.40;4.60;;;29.60;47.90;;;;;;7373075;19;20018;-76
2023/06/08 12:05:37;;;;;;;10.02;4.50;;;30.30;47.40;;;;;;7369734;19;20736;-76
2023/06/08 12:08:10;;;;;;;9.23;4.75;;;30.30;47.40;;;;;;7374219;19;20018;-75
2023/06/08 12:10:42;;;;;;;12.82;5.30;;;30.60;47.60;;;;;;7371762;19;20387;-76
2023/06/08 12:13:13;;;;;;;10.63;5.53;;;30.70;47.40;;;;;;7371123;19;20304;-75
2023/06/08 12:15:48;;;;;;;8.15;4.10;;;30.90;47.10;;;;;;7366723;19;20029;-75
2023/06/08 12:18:16;;;;;;;10.82;4.38;;;30.50;46.00;;;;;;7368937;19;20378;-77
2023/06/08 12:20:44;;;;;;;9.95;4.90;;;30.40;47.30;;;;;;7368301;19;20520;-76
2023/06/08 12:23:12;;;;;;;11.75;5.05;;;30.70;46.70;;;;;;7369646;19;20437;-76
2023/06/08 12:25:40;;;;;;;11.73;5.13;;;30.70;46.50;;;;;;7363264;19;20051;-76
2023/06/08 12:28:17;;;;;;;10.98;5.28;;;30.60;47.00;;;;;;7368676;19;20519;-76
2023/06/08 12:30:43;;;;;;;11.88;4.60;;;30.40;46.70;;;;;;7370765;19;20737;-76
2023/06/08 12:33:17;;;;;;;10.43;4.63;;;30.50;46.40;;;;;;7367081;19;20035;-76
2023/06/08 12:36:06;;;;;;;14.38;10.23;;;30.20;46.30;;;;;;7369737;19;20014;-76
2023/06/08 12:38:33;;;;;;;16.92;14.68;;;30.20;46.00;;;;;;7367070;19;20018;-75
2023/06/08 12:40:59;;;;;;;8.13;4.78;;;30.40;45.60;;;;;;7366549;19;20077;-75
2023/06/08 12:43:25;;;;;;;15.45;11.25;;;30.70;45.40;;;;;;7366929;19;20424;-76
2023/06/08 12:45:55;;;;;;;9.38;4.78;;;30.90;45.10;;;;;;7368741;19;20049;-77
2023/06/08 12:48:22;;;;;;;9.52;4.30;;;30.70;43.60;;;;;;7369240;19;20118;-76